sensor_id;sensor_type;location;lat;lon;timestamp;P1;durP1;ratioP1;P2;durP2;ratioP2
21837;SDS011;11081;45.946;6.140;2024-03-02T00:00:49;5.13;;;3.43;;
21837;SDS011;11081;45.946;6.140;2024-03-02T00:03:18;6.43;;;3.83;;
21837;SDS011;11081;45.946;6.140;2024-03-02T00:05:50;6.80;;;4.07;;
21837;SDS011;11081;45.946;6.140;2024-03-02T00:08:22;7.57;;;3.93;;
21837;SDS011;11081;45.946;6.140;2024-03-02T00:10:55;6.17;;;4.13;;
21837;SDS011;11081;45.946;6.140;2024-03-02T00:13:26;7.00;;;3.77;;
21837;SDS011;11081;45.946;6.140;2024-03-02T00:15:55;8.67;;;4.10;;
21837;SDS011;11081;45.946;6.140;2024-03-02T00:18:25;6.10;;;3.80;;
21837;SDS011;11081;45.946;6.140;2024-03-02T00:20:58;6.07;;;3.50;;
21837;SDS011;11081;45.946;6.140;2024-03-02T00:23:27;4.43;;;3.37;;
21837;SDS011;11081;45.946;6.140;2024-03-02T00:25:57;7.53;;;3.90;;
21837;SDS011;11081;45.946;6.140;2024-03-02T00:28:29;7.03;;;3.53;;
21837;SDS011;11081;45.946;6.140;2024-03-02T00:31:04;7.37;;;3.87;;
21837;SDS011;11081;45.946;6.140;2024-03-02T00:33:34;6.20;;;3.47;;
21837;SDS011;11081;45.946;6.140;2024-03-02T00:36:04;8.27;;;3.63;;
21837;SDS011;11081;45.946;6.140;2024-03-02T00:38:33;6.63;;;3.27;;
21837;SDS011;11081;45.946;6.140;2024-03-02T00:41:04;5.83;;;3.40;;
21837;SDS011;11081;45.946;6.140;2024-03-02T00:43:49;5.47;;;3.30;;
21837;SDS011;11081;45.946;6.140;2024-03-02T00:46:32;6.37;;;3.23;;
21837;SDS011;11081;45.946;6.140;2024-03-02T00:49:02;6.50;;;3.33;;
21837;SDS011;11081;45.946;6.140;2024-03-02T00:51:32;7.00;;;3.17;;
21837;SDS011;11081;45.946;6.140;2024-03-02T00:54:03;5.40;;;3.47;;
21837;SDS011;11081;45.946;6.140;2024-03-02T00:56:32;4.67;;;3.07;;
21837;SDS011;11081;45.946;6.140;2024-03-02T00:59:03;5.57;;;3.10;;
21837;SDS011;11081;45.946;6.140;2024-03-02T01:01:31;6.43;;;3.67;;
21837;SDS011;11081;45.946;6.140;2024-03-02T01:03:59;6.13;;;4.10;;
21837;SDS011;11081;45.946;6.140;2024-03-02T01:06:27;7.60;;;3.30;;
21837;SDS011;11081;45.946;6.140;2024-03-02T01:08:55;6.50;;;3.67;;
21837;SDS011;11081;45.946;6.140;2024-03-02T01:11:24;5.93;;;3.77;;
21837;SDS011;11081;45.946;6.140;2024-03-02T01:13:52;6.17;;;3.97;;
21837;SDS011;11081;45.946;6.140;2024-03-02T01:16:21;6.60;;;3.97;;
21837;SDS011;11081;45.946;6.140;2024-03-02T01:18:49;5.80;;;3.60;;
21837;SDS011;11081;45.946;6.140;2024-03-02T01:21:18;8.07;;;3.47;;
21837;SDS011;11081;45.946;6.140;2024-03-02T01:23:46;6.37;;;3.50;;
21837;SDS011;11081;45.946;6.140;2024-03-02T01:26:14;5.47;;;3.37;;
21837;SDS011;11081;45.946;6.140;2024-03-02T01:28:42;4.80;;;3.23;;
21837;SDS011;11081;45.946;6.140;2024-03-02T01:31:10;7.87;;;3.80;;
21837;SDS011;11081;45.946;6.140;2024-03-02T01:33:40;5.93;;;3.70;;
21837;SDS011;11081;45.946;6.140;2024-03-02T01:36:08;7.83;;;4.30;;
21837;SDS011;11081;45.946;6.140;2024-03-02T01:38:36;6.70;;;3.80;;
21837;SDS011;11081;45.946;6.140;2024-03-02T01:41:04;6.67;;;3.47;;
21837;SDS011;11081;45.946;6.140;2024-03-02T01:43:32;5.20;;;3.23;;
21837;SDS011;11081;45.946;6.140;2024-03-02T01:46:03;6.43;;;3.60;;
21837;SDS011;11081;45.946;6.140;2024-03-02T01:48:32;5.80;;;3.73;;
21837;SDS011;11081;45.946;6.140;2024-03-02T01:51:02;7.50;;;3.53;;
21837;SDS011;11081;45.946;6.140;2024-03-02T01:53:31;6.17;;;3.40;;
21837;SDS011;11081;45.946;6.140;2024-03-02T01:56:00;6.77;;;3.37;;
21837;SDS011;11081;45.946;6.140;2024-03-02T01:58:28;5.70;;;3.27;;
21837;SDS011;11081;45.946;6.140;2024-03-02T02:00:56;5.73;;;2.97;;
21837;SDS011;11081;45.946;6.140;2024-03-02T02:03:24;5.37;;;3.57;;
21837;SDS011;11081;45.946;6.140;2024-03-02T02:05:52;8.83;;;3.43;;
21837;SDS011;11081;45.946;6.140;2024-03-02T02:08:22;5.70;;;3.00;;
21837;SDS011;11081;45.946;6.140;2024-03-02T02:10:50;4.57;;;2.83;;
21837;SDS011;11081;45.946;6.140;2024-03-02T02:13:19;4.97;;;2.77;;
21837;SDS011;11081;45.946;6.140;2024-03-02T02:15:47;5.57;;;2.80;;
21837;SDS011;11081;45.946;6.140;2024-03-02T02:18:15;6.70;;;2.37;;
21837;SDS011;11081;45.946;6.140;2024-03-02T02:20:43;3.10;;;2.43;;
21837;SDS011;11081;45.946;6.140;2024-03-02T02:23:12;4.80;;;2.67;;
21837;SDS011;11081;45.946;6.140;2024-03-02T02:25:40;4.77;;;2.97;;
21837;SDS011;11081;45.946;6.140;2024-03-02T02:28:09;7.82;;;3.03;;
21837;SDS011;11081;45.946;6.140;2024-03-02T02:30:37;8.27;;;3.20;;
21837;SDS011;11081;45.946;6.140;2024-03-02T02:33:05;5.77;;;3.20;;
21837;SDS011;11081;45.946;6.140;2024-03-02T02:35:33;4.30;;;2.80;;
21837;SDS011;11081;45.946;6.140;2024-03-02T02:38:01;6.03;;;3.20;;
21837;SDS011;11081;45.946;6.140;2024-03-02T02:40:32;6.30;;;3.60;;
21837;SDS011;11081;45.946;6.140;2024-03-02T02:43:00;5.20;;;3.20;;
21837;SDS011;11081;45.946;6.140;2024-03-02T02:45:28;5.97;;;3.43;;
21837;SDS011;11081;45.946;6.140;2024-03-02T02:47:57;4.70;;;3.00;;
21837;SDS011;11081;45.946;6.140;2024-03-02T02:50:25;5.90;;;3.47;;
21837;SDS011;11081;45.946;6.140;2024-03-02T02:52:53;4.93;;;3.23;;
21837;SDS011;11081;45.946;6.140;2024-03-02T02:55:21;5.43;;;3.27;;
21837;SDS011;11081;45.946;6.140;2024-03-02T02:57:50;6.53;;;3.40;;
21837;SDS011;11081;45.946;6.140;2024-03-02T03:00:19;6.37;;;3.03;;
21837;SDS011;11081;45.946;6.140;2024-03-02T03:02:49;4.73;;;2.83;;
21837;SDS011;11081;45.946;6.140;2024-03-02T03:05:17;6.17;;;3.00;;
21837;SDS011;11081;45.946;6.140;2024-03-02T03:07:46;4.63;;;2.97;;
21837;SDS011;11081;45.946;6.140;2024-03-02T03:10:17;6.07;;;3.00;;
21837;SDS011;11081;45.946;6.140;2024-03-02T03:12:47;3.90;;;2.50;;
21837;SDS011;11081;45.946;6.140;2024-03-02T03:15:17;5.10;;;2.90;;
21837;SDS011;11081;45.946;6.140;2024-03-02T03:17:45;5.57;;;3.13;;
21837;SDS011;11081;45.946;6.140;2024-03-02T03:20:14;4.47;;;2.80;;
21837;SDS011;11081;45.946;6.140;2024-03-02T03:22:42;3.60;;;2.50;;
21837;SDS011;11081;45.946;6.140;2024-03-02T03:25:10;4.80;;;2.70;;
21837;SDS011;11081;45.946;6.140;2024-03-02T03:27:39;5.20;;;2.83;;
21837;SDS011;11081;45.946;6.140;2024-03-02T03:30:08;4.10;;;2.50;;
21837;SDS011;11081;45.946;6.140;2024-03-02T03:32:38;3.27;;;2.33;;
21837;SDS011;11081;45.946;6.140;2024-03-02T03:35:07;3.43;;;2.40;;
21837;SDS011;11081;45.946;6.140;2024-03-02T03:37:35;4.03;;;2.17;;
21837;SDS011;11081;45.946;6.140;2024-03-02T03:40:04;4.07;;;2.47;;
21837;SDS011;11081;45.946;6.140;2024-03-02T03:42:37;4.63;;;2.40;;
21837;SDS011;11081;45.946;6.140;2024-03-02T03:45:06;3.83;;;2.67;;
21837;SDS011;11081;45.946;6.140;2024-03-02T03:47:34;2.73;;;2.07;;
21837;SDS011;11081;45.946;6.140;2024-03-02T03:50:04;5.30;;;2.60;;
21837;SDS011;11081;45.946;6.140;2024-03-02T03:52:34;3.73;;;2.70;;
21837;SDS011;11081;45.946;6.140;2024-03-02T03:55:02;3.03;;;2.30;;
21837;SDS011;11081;45.946;6.140;2024-03-02T03:57:32;3.60;;;2.60;;
21837;SDS011;11081;45.946;6.140;2024-03-02T04:00:00;3.03;;;2.30;;
21837;SDS011;11081;45.946;6.140;2024-03-02T04:02:37;4.93;;;2.23;;
21837;SDS011;11081;45.946;6.140;2024-03-02T04:05:07;3.33;;;2.37;;
21837;SDS011;11081;45.946;6.140;2024-03-02T04:07:38;3.30;;;2.30;;
21837;SDS011;11081;45.946;6.140;2024-03-02T04:10:08;4.10;;;2.60;;
21837;SDS011;11081;45.946;6.140;2024-03-02T04:12:36;4.10;;;2.50;;
21837;SDS011;11081;45.946;6.140;2024-03-02T04:15:05;3.23;;;2.20;;
21837;SDS011;11081;45.946;6.140;2024-03-02T04:17:34;5.20;;;3.17;;
21837;SDS011;11081;45.946;6.140;2024-03-02T04:20:02;3.90;;;3.20;;
21837;SDS011;11081;45.946;6.140;2024-03-02T04:22:34;3.67;;;2.20;;
21837;SDS011;11081;45.946;6.140;2024-03-02T04:25:03;3.77;;;2.33;;
21837;SDS011;11081;45.946;6.140;2024-03-02T04:27:33;3.97;;;2.53;;
21837;SDS011;11081;45.946;6.140;2024-03-02T04:30:02;4.33;;;2.40;;
21837;SDS011;11081;45.946;6.140;2024-03-02T04:32:32;3.90;;;2.60;;
21837;SDS011;11081;45.946;6.140;2024-03-02T04:35:00;3.93;;;2.70;;
21837;SDS011;11081;45.946;6.140;2024-03-02T04:37:28;4.10;;;2.37;;
21837;SDS011;11081;45.946;6.140;2024-03-02T04:39:58;4.43;;;2.83;;
21837;SDS011;11081;45.946;6.140;2024-03-02T04:42:27;6.73;;;3.17;;
21837;SDS011;11081;45.946;6.140;2024-03-02T04:44:55;3.43;;;2.50;;
21837;SDS011;11081;45.946;6.140;2024-03-02T04:47:23;4.43;;;2.70;;
21837;SDS011;11081;45.946;6.140;2024-03-02T04:49:51;3.03;;;2.40;;
21837;SDS011;11081;45.946;6.140;2024-03-02T04:52:19;4.30;;;2.97;;
21837;SDS011;11081;45.946;6.140;2024-03-02T04:54:47;6.17;;;2.73;;
21837;SDS011;11081;45.946;6.140;2024-03-02T04:57:34;4.50;;;2.27;;
21837;SDS011;11081;45.946;6.140;2024-03-02T05:00:02;2.90;;;2.10;;
21837;SDS011;11081;45.946;6.140;2024-03-02T05:02:33;3.47;;;2.00;;
21837;SDS011;11081;45.946;6.140;2024-03-02T05:05:01;3.10;;;2.03;;
21837;SDS011;11081;45.946;6.140;2024-03-02T05:07:30;3.40;;;2.67;;
21837;SDS011;11081;45.946;6.140;2024-03-02T05:09:58;4.03;;;2.97;;
21837;SDS011;11081;45.946;6.140;2024-03-02T05:12:26;4.80;;;2.87;;
21837;SDS011;11081;45.946;6.140;2024-03-02T05:15:23;5.83;;;3.87;;
21837;SDS011;11081;45.946;6.140;2024-03-02T05:17:51;8.73;;;3.73;;
21837;SDS011;11081;45.946;6.140;2024-03-02T05:20:19;6.97;;;3.80;;
21837;SDS011;11081;45.946;6.140;2024-03-02T05:22:47;6.17;;;3.67;;
21837;SDS011;11081;45.946;6.140;2024-03-02T05:25:16;6.20;;;3.67;;
21837;SDS011;11081;45.946;6.140;2024-03-02T05:27:44;5.93;;;3.57;;
21837;SDS011;11081;45.946;6.140;2024-03-02T05:30:13;4.83;;;3.10;;
21837;SDS011;11081;45.946;6.140;2024-03-02T05:32:42;6.80;;;2.80;;
21837;SDS011;11081;45.946;6.140;2024-03-02T05:35:10;5.00;;;2.90;;
21837;SDS011;11081;45.946;6.140;2024-03-02T05:37:39;3.63;;;2.60;;
21837;SDS011;11081;45.946;6.140;2024-03-02T05:40:08;3.33;;;2.23;;
21837;SDS011;11081;45.946;6.140;2024-03-02T05:42:37;4.03;;;2.57;;
21837;SDS011;11081;45.946;6.140;2024-03-02T05:45:07;3.23;;;2.00;;
21837;SDS011;11081;45.946;6.140;2024-03-02T05:47:36;4.00;;;2.70;;
21837;SDS011;11081;45.946;6.140;2024-03-02T05:50:07;3.07;;;2.57;;
21837;SDS011;11081;45.946;6.140;2024-03-02T05:52:35;3.70;;;2.70;;
21837;SDS011;11081;45.946;6.140;2024-03-02T05:55:03;3.40;;;2.07;;
21837;SDS011;11081;45.946;6.140;2024-03-02T05:57:32;3.57;;;2.00;;
21837;SDS011;11081;45.946;6.140;2024-03-02T06:00:14;3.70;;;2.40;;
21837;SDS011;11081;45.946;6.140;2024-03-02T06:02:44;3.53;;;2.00;;
21837;SDS011;11081;45.946;6.140;2024-03-02T06:05:13;3.47;;;2.13;;
21837;SDS011;11081;45.946;6.140;2024-03-02T06:07:43;5.47;;;2.63;;
21837;SDS011;11081;45.946;6.140;2024-03-02T06:10:12;4.43;;;1.87;;
21837;SDS011;11081;45.946;6.140;2024-03-02T06:12:41;4.00;;;2.00;;
21837;SDS011;11081;45.946;6.140;2024-03-02T06:15:09;3.57;;;2.23;;
21837;SDS011;11081;45.946;6.140;2024-03-02T06:17:37;2.53;;;1.87;;
21837;SDS011;11081;45.946;6.140;2024-03-02T06:20:06;2.50;;;1.70;;
21837;SDS011;11081;45.946;6.140;2024-03-02T06:22:36;4.07;;;2.23;;
21837;SDS011;11081;45.946;6.140;2024-03-02T06:25:05;2.50;;;1.70;;
21837;SDS011;11081;45.946;6.140;2024-03-02T06:27:33;3.00;;;1.93;;
21837;SDS011;11081;45.946;6.140;2024-03-02T06:30:01;3.87;;;1.90;;
21837;SDS011;11081;45.946;6.140;2024-03-02T06:32:30;5.23;;;1.90;;
21837;SDS011;11081;45.946;6.140;2024-03-02T06:34:59;2.33;;;1.90;;
21837;SDS011;11081;45.946;6.140;2024-03-02T06:37:27;4.20;;;2.03;;
21837;SDS011;11081;45.946;6.140;2024-03-02T06:39:56;4.53;;;2.10;;
21837;SDS011;11081;45.946;6.140;2024-03-02T06:42:24;5.43;;;2.13;;
21837;SDS011;11081;45.946;6.140;2024-03-02T06:44:53;3.03;;;2.20;;
21837;SDS011;11081;45.946;6.140;2024-03-02T06:47:21;4.90;;;2.50;;
21837;SDS011;11081;45.946;6.140;2024-03-02T06:49:49;4.57;;;2.37;;
21837;SDS011;11081;45.946;6.140;2024-03-02T06:52:17;5.70;;;2.20;;
21837;SDS011;11081;45.946;6.140;2024-03-02T06:54:49;2.43;;;2.10;;
21837;SDS011;11081;45.946;6.140;2024-03-02T06:57:19;6.23;;;2.93;;
21837;SDS011;11081;45.946;6.140;2024-03-02T06:59:47;8.53;;;3.60;;
21837;SDS011;11081;45.946;6.140;2024-03-02T07:02:17;4.17;;;2.70;;
21837;SDS011;11081;45.946;6.140;2024-03-02T07:04:45;7.07;;;3.37;;
21837;SDS011;11081;45.946;6.140;2024-03-02T07:07:14;3.03;;;2.37;;
21837;SDS011;11081;45.946;6.140;2024-03-02T07:09:42;4.80;;;2.60;;
21837;SDS011;11081;45.946;6.140;2024-03-02T07:12:10;3.13;;;2.40;;
21837;SDS011;11081;45.946;6.140;2024-03-02T07:14:39;3.47;;;2.40;;
21837;SDS011;11081;45.946;6.140;2024-03-02T07:17:37;3.17;;;2.70;;
21837;SDS011;11081;45.946;6.140;2024-03-02T07:20:06;7.50;;;3.10;;
21837;SDS011;11081;45.946;6.140;2024-03-02T07:22:34;4.17;;;2.80;;
21837;SDS011;11081;45.946;6.140;2024-03-02T07:25:07;5.13;;;2.33;;
21837;SDS011;11081;45.946;6.140;2024-03-02T07:27:55;5.03;;;2.40;;
21837;SDS011;11081;45.946;6.140;2024-03-02T07:30:25;4.63;;;2.17;;
21837;SDS011;11081;45.946;6.140;2024-03-02T07:32:55;4.10;;;2.27;;
21837;SDS011;11081;45.946;6.140;2024-03-02T07:35:23;5.60;;;2.67;;
21837;SDS011;11081;45.946;6.140;2024-03-02T07:37:54;5.13;;;2.63;;
21837;SDS011;11081;45.946;6.140;2024-03-02T07:40:23;5.80;;;3.07;;
21837;SDS011;11081;45.946;6.140;2024-03-02T07:42:51;4.67;;;2.50;;
21837;SDS011;11081;45.946;6.140;2024-03-02T07:45:19;7.00;;;2.75;;
21837;SDS011;11081;45.946;6.140;2024-03-02T07:47:49;3.73;;;2.40;;
21837;SDS011;11081;45.946;6.140;2024-03-02T07:50:17;4.33;;;2.40;;
21837;SDS011;11081;45.946;6.140;2024-03-02T07:52:46;4.50;;;2.23;;
21837;SDS011;11081;45.946;6.140;2024-03-02T07:55:14;6.13;;;2.37;;
21837;SDS011;11081;45.946;6.140;2024-03-02T07:57:43;4.30;;;2.10;;
21837;SDS011;11081;45.946;6.140;2024-03-02T08:00:11;3.90;;;2.27;;
21837;SDS011;11081;45.946;6.140;2024-03-02T08:02:41;4.10;;;1.83;;
21837;SDS011;11081;45.946;6.140;2024-03-02T08:05:11;3.17;;;1.97;;
21837;SDS011;11081;45.946;6.140;2024-03-02T08:07:39;2.97;;;2.08;;
21837;SDS011;11081;45.946;6.140;2024-03-02T08:10:08;5.20;;;2.20;;
21837;SDS011;11081;45.946;6.140;2024-03-02T08:12:36;4.27;;;2.20;;
21837;SDS011;11081;45.946;6.140;2024-03-02T08:15:05;5.67;;;2.23;;
21837;SDS011;11081;45.946;6.140;2024-03-02T08:17:34;2.88;;;1.98;;
21837;SDS011;11081;45.946;6.140;2024-03-02T08:20:04;5.30;;;1.73;;
21837;SDS011;11081;45.946;6.140;2024-03-02T08:22:36;2.67;;;2.03;;
21837;SDS011;11081;45.946;6.140;2024-03-02T08:25:04;5.22;;;2.30;;
21837;SDS011;11081;45.946;6.140;2024-03-02T08:27:32;4.30;;;2.20;;
21837;SDS011;11081;45.946;6.140;2024-03-02T08:30:01;4.53;;;2.30;;
21837;SDS011;11081;45.946;6.140;2024-03-02T08:32:33;5.37;;;2.40;;
21837;SDS011;11081;45.946;6.140;2024-03-02T08:35:01;4.38;;;2.50;;
21837;SDS011;11081;45.946;6.140;2024-03-02T08:37:30;4.60;;;2.95;;
21837;SDS011;11081;45.946;6.140;2024-03-02T08:39:59;5.85;;;2.30;;
21837;SDS011;11081;45.946;6.140;2024-03-02T08:42:28;4.20;;;2.57;;
21837;SDS011;11081;45.946;6.140;2024-03-02T08:44:56;2.88;;;2.15;;
21837;SDS011;11081;45.946;6.140;2024-03-02T08:47:24;4.70;;;2.30;;
21837;SDS011;11081;45.946;6.140;2024-03-02T08:49:52;4.13;;;2.45;;
21837;SDS011;11081;45.946;6.140;2024-03-02T08:52:23;3.80;;;2.00;;
21837;SDS011;11081;45.946;6.140;2024-03-02T08:54:51;3.97;;;2.40;;
21837;SDS011;11081;45.946;6.140;2024-03-02T08:57:20;2.78;;;2.35;;
21837;SDS011;11081;45.946;6.140;2024-03-02T08:59:48;3.13;;;2.10;;
21837;SDS011;11081;45.946;6.140;2024-03-02T09:02:16;3.70;;;2.05;;
21837;SDS011;11081;45.946;6.140;2024-03-02T09:04:44;5.15;;;2.30;;
21837;SDS011;11081;45.946;6.140;2024-03-02T09:07:13;3.33;;;2.20;;
21837;SDS011;11081;45.946;6.140;2024-03-02T09:09:41;3.93;;;2.53;;
21837;SDS011;11081;45.946;6.140;2024-03-02T09:12:09;3.83;;;2.33;;
21837;SDS011;11081;45.946;6.140;2024-03-02T09:14:40;6.97;;;1.95;;
21837;SDS011;11081;45.946;6.140;2024-03-02T09:17:09;3.08;;;2.03;;
21837;SDS011;11081;45.946;6.140;2024-03-02T09:19:38;4.10;;;2.33;;
21837;SDS011;11081;45.946;6.140;2024-03-02T09:22:07;2.88;;;2.00;;
21837;SDS011;11081;45.946;6.140;2024-03-02T09:24:36;2.97;;;1.92;;
21837;SDS011;11081;45.946;6.140;2024-03-02T09:27:04;2.63;;;1.95;;
21837;SDS011;11081;45.946;6.140;2024-03-02T09:29:32;3.88;;;2.33;;
21837;SDS011;11081;45.946;6.140;2024-03-02T09:32:02;2.88;;;2.05;;
21837;SDS011;11081;45.946;6.140;2024-03-02T09:34:30;3.70;;;2.13;;
21837;SDS011;11081;45.946;6.140;2024-03-02T09:36:58;3.85;;;2.10;;
21837;SDS011;11081;45.946;6.140;2024-03-02T09:39:26;4.70;;;2.25;;
21837;SDS011;11081;45.946;6.140;2024-03-02T09:41:55;4.13;;;1.77;;
21837;SDS011;11081;45.946;6.140;2024-03-02T09:44:23;4.38;;;1.98;;
21837;SDS011;11081;45.946;6.140;2024-03-02T09:46:52;3.15;;;1.80;;
21837;SDS011;11081;45.946;6.140;2024-03-02T09:49:21;3.63;;;1.90;;
21837;SDS011;11081;45.946;6.140;2024-03-02T09:51:50;1.90;;;1.48;;
21837;SDS011;11081;45.946;6.140;2024-03-02T09:54:18;2.95;;;1.77;;
21837;SDS011;11081;45.946;6.140;2024-03-02T09:56:49;3.60;;;1.70;;
21837;SDS011;11081;45.946;6.140;2024-03-02T09:59:18;2.72;;;1.77;;
21837;SDS011;11081;45.946;6.140;2024-03-02T10:04:35;5.50;;;1.42;;
21837;SDS011;11081;45.946;6.140;2024-03-02T10:07:10;2.25;;;1.50;;
21837;SDS011;11081;45.946;6.140;2024-03-02T10:09:39;5.05;;;1.60;;
21837;SDS011;11081;45.946;6.140;2024-03-02T10:12:08;1.55;;;1.30;;
21837;SDS011;11081;45.946;6.140;2024-03-02T10:14:39;3.72;;;1.60;;
21837;SDS011;11081;45.946;6.140;2024-03-02T10:17:07;2.13;;;1.40;;
21837;SDS011;11081;45.946;6.140;2024-03-02T10:19:38;2.47;;;1.63;;
21837;SDS011;11081;45.946;6.140;2024-03-02T10:22:09;3.42;;;1.77;;
21837;SDS011;11081;45.946;6.140;2024-03-02T10:24:38;2.08;;;1.60;;
21837;SDS011;11081;45.946;6.140;2024-03-02T10:27:08;2.22;;;1.55;;
21837;SDS011;11081;45.946;6.140;2024-03-02T10:29:38;3.05;;;1.83;;
21837;SDS011;11081;45.946;6.140;2024-03-02T10:32:10;3.50;;;1.65;;
21837;SDS011;11081;45.946;6.140;2024-03-02T10:34:40;4.18;;;1.77;;
21837;SDS011;11081;45.946;6.140;2024-03-02T10:37:10;3.58;;;2.00;;
21837;SDS011;11081;45.946;6.140;2024-03-02T10:39:39;2.92;;;2.25;;
21837;SDS011;11081;45.946;6.140;2024-03-02T10:42:08;3.75;;;1.60;;
21837;SDS011;11081;45.946;6.140;2024-03-02T10:44:37;3.13;;;1.70;;
21837;SDS011;11081;45.946;6.140;2024-03-02T10:47:05;3.80;;;1.80;;
21837;SDS011;11081;45.946;6.140;2024-03-02T10:49:33;2.20;;;1.80;;
21837;SDS011;11081;45.946;6.140;2024-03-02T10:52:02;4.05;;;1.92;;
21837;SDS011;11081;45.946;6.140;2024-03-02T10:54:31;2.03;;;1.40;;
21837;SDS011;11081;45.946;6.140;2024-03-02T10:57:04;2.55;;;1.80;;
21837;SDS011;11081;45.946;6.140;2024-03-02T10:59:36;3.40;;;2.10;;
21837;SDS011;11081;45.946;6.140;2024-03-02T11:02:11;4.75;;;2.00;;
21837;SDS011;11081;45.946;6.140;2024-03-02T11:04:41;3.58;;;2.20;;
21837;SDS011;11081;45.946;6.140;2024-03-02T11:07:11;3.50;;;2.35;;
21837;SDS011;11081;45.946;6.140;2024-03-02T11:09:41;3.53;;;1.90;;
21837;SDS011;11081;45.946;6.140;2024-03-02T11:12:13;5.43;;;2.20;;
21837;SDS011;11081;45.946;6.140;2024-03-02T11:14:46;3.60;;;2.25;;
21837;SDS011;11081;45.946;6.140;2024-03-02T11:17:14;2.53;;;1.75;;
21837;SDS011;11081;45.946;6.140;2024-03-02T11:19:44;4.22;;;2.17;;
21837;SDS011;11081;45.946;6.140;2024-03-02T11:22:15;5.40;;;2.17;;
21837;SDS011;11081;45.946;6.140;2024-03-02T11:24:47;2.40;;;1.88;;
21837;SDS011;11081;45.946;6.140;2024-03-02T11:27:58;3.78;;;1.60;;
21837;SDS011;11081;45.946;6.140;2024-03-02T11:33:25;5.95;;;1.98;;
21837;SDS011;11081;45.946;6.140;2024-03-02T11:35:56;2.78;;;1.70;;
21837;SDS011;11081;45.946;6.140;2024-03-02T11:38:31;6.47;;;1.70;;
21837;SDS011;11081;45.946;6.140;2024-03-02T11:41:00;5.20;;;1.80;;
21837;SDS011;11081;45.946;6.140;2024-03-02T11:43:29;3.53;;;2.00;;
21837;SDS011;11081;45.946;6.140;2024-03-02T11:45:58;3.65;;;1.85;;
21837;SDS011;11081;45.946;6.140;2024-03-02T11:48:27;5.25;;;1.80;;
21837;SDS011;11081;45.946;6.140;2024-03-02T11:50:58;2.63;;;1.83;;
21837;SDS011;11081;45.946;6.140;2024-03-02T11:53:27;3.33;;;1.67;;
21837;SDS011;11081;45.946;6.140;2024-03-02T11:56:01;3.60;;;2.13;;
21837;SDS011;11081;45.946;6.140;2024-03-02T11:58:29;3.92;;;1.65;;
21837;SDS011;11081;45.946;6.140;2024-03-02T12:00:57;3.60;;;1.77;;
21837;SDS011;11081;45.946;6.140;2024-03-02T12:03:26;2.67;;;1.60;;
21837;SDS011;11081;45.946;6.140;2024-03-02T12:05:54;3.55;;;1.65;;
21837;SDS011;11081;45.946;6.140;2024-03-02T12:08:23;2.92;;;1.20;;
21837;SDS011;11081;45.946;6.140;2024-03-02T12:10:55;2.20;;;1.38;;
21837;SDS011;11081;45.946;6.140;2024-03-02T12:13:27;2.25;;;1.30;;
21837;SDS011;11081;45.946;6.140;2024-03-02T12:15:55;2.45;;;1.35;;
21837;SDS011;11081;45.946;6.140;2024-03-02T12:18:24;1.98;;;1.40;;
21837;SDS011;11081;45.946;6.140;2024-03-02T12:20:53;2.33;;;1.42;;
21837;SDS011;11081;45.946;6.140;2024-03-02T12:23:24;3.03;;;1.70;;
21837;SDS011;11081;45.946;6.140;2024-03-02T12:25:53;2.88;;;1.60;;
21837;SDS011;11081;45.946;6.140;2024-03-02T12:28:21;5.28;;;1.60;;
21837;SDS011;11081;45.946;6.140;2024-03-02T12:30:50;2.72;;;1.52;;
21837;SDS011;11081;45.946;6.140;2024-03-02T12:33:19;4.95;;;1.50;;
21837;SDS011;11081;45.946;6.140;2024-03-02T12:35:48;2.13;;;1.30;;
21837;SDS011;11081;45.946;6.140;2024-03-02T12:38:17;2.53;;;1.60;;
21837;SDS011;11081;45.946;6.140;2024-03-02T12:40:47;3.95;;;1.63;;
21837;SDS011;11081;45.946;6.140;2024-03-02T12:43:15;4.63;;;1.90;;
21837;SDS011;11081;45.946;6.140;2024-03-02T12:45:43;3.88;;;1.67;;
21837;SDS011;11081;45.946;6.140;2024-03-02T12:48:13;3.70;;;2.42;;
21837;SDS011;11081;45.946;6.140;2024-03-02T12:50:42;5.43;;;2.28;;
21837;SDS011;11081;45.946;6.140;2024-03-02T12:53:13;3.90;;;1.20;;
21837;SDS011;11081;45.946;6.140;2024-03-02T12:55:43;2.65;;;1.20;;
21837;SDS011;11081;45.946;6.140;2024-03-02T12:58:16;2.45;;;1.55;;
21837;SDS011;11081;45.946;6.140;2024-03-02T13:00:45;1.80;;;1.20;;
21837;SDS011;11081;45.946;6.140;2024-03-02T13:03:15;7.78;;;3.22;;
21837;SDS011;11081;45.946;6.140;2024-03-02T13:05:50;3.80;;;2.25;;
21837;SDS011;11081;45.946;6.140;2024-03-02T13:08:19;1.70;;;1.20;;
21837;SDS011;11081;45.946;6.140;2024-03-02T13:10:47;1.48;;;0.95;;
21837;SDS011;11081;45.946;6.140;2024-03-02T13:13:16;2.35;;;1.20;;
21837;SDS011;11081;45.946;6.140;2024-03-02T13:15:44;4.05;;;1.48;;
21837;SDS011;11081;45.946;6.140;2024-03-02T13:18:13;2.53;;;1.30;;
21837;SDS011;11081;45.946;6.140;2024-03-02T13:20:42;2.45;;;1.23;;
21837;SDS011;11081;45.946;6.140;2024-03-02T13:23:10;4.07;;;1.40;;
21837;SDS011;11081;45.946;6.140;2024-03-02T13:25:38;2.65;;;1.20;;
21837;SDS011;11081;45.946;6.140;2024-03-02T13:28:06;2.35;;;1.20;;
21837;SDS011;11081;45.946;6.140;2024-03-02T13:30:35;1.40;;;1.15;;
21837;SDS011;11081;45.946;6.140;2024-03-02T13:33:03;3.97;;;1.27;;
21837;SDS011;11081;45.946;6.140;2024-03-02T13:35:32;1.85;;;1.20;;
21837;SDS011;11081;45.946;6.140;2024-03-02T13:38:01;2.42;;;1.35;;
21837;SDS011;11081;45.946;6.140;2024-03-02T13:40:29;1.63;;;1.15;;
21837;SDS011;11081;45.946;6.140;2024-03-02T13:43:02;2.00;;;1.27;;
21837;SDS011;11081;45.946;6.140;2024-03-02T13:45:30;2.72;;;1.45;;
21837;SDS011;11081;45.946;6.140;2024-03-02T13:47:58;2.42;;;1.60;;
21837;SDS011;11081;45.946;6.140;2024-03-02T13:50:28;1.55;;;1.27;;
21837;SDS011;11081;45.946;6.140;2024-03-02T13:52:57;3.33;;;1.20;;
21837;SDS011;11081;45.946;6.140;2024-03-02T13:55:26;2.25;;;1.40;;
21837;SDS011;11081;45.946;6.140;2024-03-02T13:57:54;2.72;;;1.40;;
21837;SDS011;11081;45.946;6.140;2024-03-02T14:00:22;2.38;;;1.40;;
21837;SDS011;11081;45.946;6.140;2024-03-02T14:02:50;1.73;;;1.30;;
21837;SDS011;11081;45.946;6.140;2024-03-02T14:05:19;3.03;;;1.77;;
21837;SDS011;11081;45.946;6.140;2024-03-02T14:07:47;2.85;;;1.35;;
21837;SDS011;11081;45.946;6.140;2024-03-02T14:10:15;3.10;;;1.30;;
21837;SDS011;11081;45.946;6.140;2024-03-02T14:12:46;5.25;;;2.35;;
21837;SDS011;11081;45.946;6.140;2024-03-02T14:15:14;4.28;;;2.08;;
21837;SDS011;11081;45.946;6.140;2024-03-02T14:17:45;4.75;;;2.55;;
21837;SDS011;11081;45.946;6.140;2024-03-02T14:20:14;5.78;;;2.85;;
21837;SDS011;11081;45.946;6.140;2024-03-02T14:22:48;2.88;;;2.00;;
21837;SDS011;11081;45.946;6.140;2024-03-02T14:25:16;6.50;;;2.42;;
21837;SDS011;11081;45.946;6.140;2024-03-02T14:27:47;4.07;;;2.15;;
21837;SDS011;11081;45.946;6.140;2024-03-02T14:30:35;3.83;;;1.80;;
21837;SDS011;11081;45.946;6.140;2024-03-02T14:33:04;3.13;;;1.60;;
21837;SDS011;11081;45.946;6.140;2024-03-02T14:35:32;4.75;;;1.40;;
21837;SDS011;11081;45.946;6.140;2024-03-02T14:38:00;5.07;;;1.95;;
21837;SDS011;11081;45.946;6.140;2024-03-02T14:40:29;2.88;;;1.50;;
21837;SDS011;11081;45.946;6.140;2024-03-02T14:42:58;6.05;;;3.03;;
21837;SDS011;11081;45.946;6.140;2024-03-02T14:45:26;3.85;;;2.47;;
21837;SDS011;11081;45.946;6.140;2024-03-02T14:47:55;5.68;;;2.65;;
21837;SDS011;11081;45.946;6.140;2024-03-02T14:50:26;4.25;;;1.77;;
21837;SDS011;11081;45.946;6.140;2024-03-02T14:52:54;3.95;;;2.00;;
21837;SDS011;11081;45.946;6.140;2024-03-02T14:55:24;2.53;;;1.50;;
21837;SDS011;11081;45.946;6.140;2024-03-02T14:57:52;4.00;;;1.77;;
21837;SDS011;11081;45.946;6.140;2024-03-02T15:00:22;4.22;;;1.50;;
21837;SDS011;11081;45.946;6.140;2024-03-02T15:02:50;2.53;;;1.42;;
21837;SDS011;11081;45.946;6.140;2024-03-02T15:05:18;5.88;;;1.80;;
21837;SDS011;11081;45.946;6.140;2024-03-02T15:07:46;1.75;;;1.25;;